createdAt,value
2022-08-20T00:01:50.683Z,19.08
2022-08-20T00:04:18.046Z,19.05
2022-08-20T00:06:46.209Z,19.02
2022-08-20T00:09:13.583Z,18.99
2022-08-20T00:11:41.030Z,18.95
2022-08-20T00:14:08.525Z,18.93
2022-08-20T00:16:38.332Z,18.91
2022-08-20T00:19:08.738Z,18.88
2022-08-20T00:21:36.951Z,18.86
2022-08-20T00:24:05.573Z,18.83
2022-08-20T00:26:33.326Z,18.79
2022-08-20T00:29:00.800Z,18.78
2022-08-20T00:31:28.786Z,18.77
2022-08-20T00:33:56.184Z,18.74
2022-08-20T00:36:32.191Z,18.71
2022-08-20T00:39:01.588Z,18.68
2022-08-20T00:41:29.835Z,18.65
2022-08-20T00:44:11.596Z,18.65
2022-08-20T00:46:41.872Z,18.65
2022-08-20T00:49:14.644Z,18.63
2022-08-20T00:51:48.893Z,18.60
2022-08-20T00:54:53.766Z,18.58
2022-08-20T00:57:59.064Z,18.57
2022-08-20T01:00:39.630Z,18.57
2022-08-20T01:03:10.131Z,18.56
2022-08-20T01:05:44.995Z,18.54
2022-08-20T01:08:12.904Z,18.52
2022-08-20T01:10:48.539Z,18.49
2022-08-20T01:13:21.523Z,18.46
2022-08-20T01:15:54.800Z,18.45
2022-08-20T01:18:26.498Z,18.42
2022-08-20T01:21:01.103Z,18.40
2022-08-20T01:23:53.589Z,18.38
2022-08-20T01:26:38.053Z,18.34
2022-08-20T01:29:14.323Z,18.33
2022-08-20T01:31:42.727Z,18.30
2022-08-20T01:34:13.947Z,18.29
2022-08-20T01:36:48.891Z,18.29
2022-08-20T01:39:20.981Z,18.26
2022-08-20T01:42:15.734Z,18.23
2022-08-20T01:44:45.385Z,18.20
2022-08-20T01:47:24.477Z,18.17
2022-08-20T01:49:57.208Z,18.17
2022-08-20T01:52:43.550Z,18.15
2022-08-20T01:55:11.657Z,18.13
2022-08-20T01:57:40.005Z,18.12
2022-08-20T02:00:19.769Z,18.10
2022-08-20T02:02:49.719Z,18.05
2022-08-20T02:05:18.337Z,18.03
2022-08-20T02:07:45.654Z,18.02
2022-08-20T02:10:16.269Z,18.01
2022-08-20T02:12:43.963Z,18.00
2022-08-20T02:15:13.218Z,18.00
2022-08-20T02:17:42.222Z,18.00
2022-08-20T02:20:16.191Z,17.98
2022-08-20T02:22:50.923Z,17.96
2022-08-20T02:25:20.304Z,17.93
2022-08-20T02:27:53.200Z,17.92
2022-08-20T02:30:29.654Z,17.90
2022-08-20T02:32:58.615Z,17.90
2022-08-20T02:35:26.816Z,17.90
2022-08-20T02:37:55.170Z,17.89
2022-08-20T02:40:27.241Z,17.89
2022-08-20T02:42:59.189Z,17.88
2022-08-20T02:45:27.548Z,17.86
2022-08-20T02:47:57.246Z,17.85
2022-08-20T02:50:26.465Z,17.85
2022-08-20T02:52:54.274Z,17.84
2022-08-20T02:55:27.037Z,17.82
2022-08-20T02:57:58.928Z,17.82
2022-08-20T03:00:28.222Z,17.82
2022-08-20T03:02:59.718Z,17.81
2022-08-20T03:05:27.636Z,17.81
2022-08-20T03:07:57.052Z,17.81
2022-08-20T03:10:31.336Z,17.79
2022-08-20T03:13:01.523Z,17.79
2022-08-20T03:15:31.325Z,17.78
2022-08-20T03:17:59.297Z,17.78
2022-08-20T03:20:27.249Z,17.77
2022-08-20T03:22:55.752Z,17.74
2022-08-20T03:25:24.598Z,17.76
2022-08-20T03:27:54.963Z,17.77
2022-08-20T03:30:25.544Z,17.78
2022-08-20T03:32:53.801Z,17.77
2022-08-20T03:35:23.919Z,17.78
2022-08-20T03:37:52.085Z,17.77
2022-08-20T03:40:27.192Z,17.76
2022-08-20T03:42:54.829Z,17.75
2022-08-20T03:45:23.258Z,17.73
2022-08-20T03:47:52.312Z,17.73
2022-08-20T03:50:23.732Z,17.74
2022-08-20T03:52:52.561Z,17.71
2022-08-20T03:55:21.049Z,17.70
2022-08-20T03:57:55.254Z,17.67
2022-08-20T04:00:27.239Z,17.64
2022-08-20T04:02:57.089Z,17.63
2022-08-20T04:05:30.817Z,17.64
2022-08-20T04:08:03.285Z,17.59
2022-08-20T04:10:32.007Z,17.60
2022-08-20T04:12:59.398Z,17.60
2022-08-20T04:15:27.198Z,17.57
2022-08-20T04:17:55.292Z,17.56
2022-08-20T04:20:26.346Z,17.54
2022-08-20T04:22:58.460Z,17.56
2022-08-20T04:25:36.099Z,17.53
2022-08-20T04:28:06.712Z,17.53
2022-08-20T04:30:34.417Z,17.50
2022-08-20T04:33:02.596Z,17.47
2022-08-20T04:35:30.944Z,17.48
2022-08-20T04:38:00.256Z,17.48
2022-08-20T04:40:47.475Z,17.48
2022-08-20T04:43:14.929Z,17.47
2022-08-20T04:45:42.448Z,17.47
2022-08-20T04:48:14.688Z,17.46
2022-08-20T04:50:45.258Z,17.46
2022-08-20T04:53:14.850Z,17.45
2022-08-20T04:55:43.503Z,17.46
2022-08-20T04:58:14.015Z,17.46
2022-08-20T05:00:41.643Z,17.47
2022-08-20T05:03:09.252Z,17.45
2022-08-20T05:05:36.934Z,17.46
2022-08-20T05:08:04.870Z,17.45
2022-08-20T05:10:32.714Z,17.46
2022-08-20T05:13:00.871Z,17.47
2022-08-20T05:15:28.271Z,17.48
2022-08-20T05:18:07.961Z,17.49
2022-08-20T05:20:41.884Z,17.50
2022-08-20T05:23:12.435Z,17.53
2022-08-20T05:25:43.086Z,17.54
2022-08-20T05:28:19.454Z,17.53
2022-08-20T05:30:49.281Z,17.54
2022-08-20T05:33:19.310Z,17.55
2022-08-20T05:35:48.967Z,17.53
2022-08-20T05:38:18.958Z,17.53
2022-08-20T05:40:47.278Z,17.54
2022-08-20T05:43:15.326Z,17.54
2022-08-20T05:45:44.447Z,17.53
2022-08-20T05:48:17.834Z,17.55
2022-08-20T05:50:49.473Z,17.57
2022-08-20T05:53:18.665Z,17.58
2022-08-20T05:55:46.479Z,17.60
2022-08-20T05:58:21.541Z,17.58
2022-08-20T06:00:50.377Z,17.57
2022-08-20T06:03:36.752Z,17.58
2022-08-20T06:06:05.124Z,17.58
2022-08-20T06:08:45.448Z,17.59
2022-08-20T06:11:12.749Z,17.59
2022-08-20T06:13:40.538Z,17.62
2022-08-20T06:16:08.254Z,17.64
2022-08-20T06:18:35.862Z,17.65
2022-08-20T06:21:03.178Z,17.66
2022-08-20T06:23:56.627Z,17.67
2022-08-20T06:26:29.625Z,17.69
2022-08-20T06:29:07.062Z,17.68
2022-08-20T06:31:35.339Z,17.71
2022-08-20T06:34:02.643Z,17.71
2022-08-20T06:36:30.058Z,17.72
2022-08-20T06:38:58.651Z,17.76
2022-08-20T06:41:36.189Z,17.76
2022-08-20T06:44:07.794Z,17.77
2022-08-20T06:46:36.599Z,17.81
2022-08-20T06:49:05.731Z,17.84
2022-08-20T06:51:34.428Z,17.87
2022-08-20T06:54:01.965Z,17.91
2022-08-20T06:56:29.516Z,17.91
2022-08-20T06:58:56.921Z,17.97
2022-08-20T07:01:24.632Z,18.01
2022-08-20T07:03:54.402Z,18.07
2022-08-20T07:06:26.050Z,18.15
2022-08-20T07:08:54.925Z,18.21
2022-08-20T07:11:27.728Z,18.29
2022-08-20T07:13:58.598Z,18.37
2022-08-20T07:16:29.276Z,18.43
2022-08-20T07:18:56.767Z,18.53
2022-08-20T07:21:26.023Z,18.57
2022-08-20T07:23:53.606Z,18.60
2022-08-20T07:26:20.944Z,18.66
2022-08-20T07:28:48.863Z,18.70
2022-08-20T07:31:35.703Z,18.76
2022-08-20T07:34:03.905Z,18.81
2022-08-20T07:36:32.696Z,18.86
2022-08-20T07:39:05.976Z,18.86
2022-08-20T07:41:34.294Z,18.88
2022-08-20T07:44:01.914Z,18.90
2022-08-20T07:46:31.306Z,18.92
2022-08-20T07:48:59.473Z,18.95
2022-08-20T07:51:27.239Z,18.99
2022-08-20T07:53:54.909Z,19.00
2022-08-20T07:56:24.655Z,19.05
2022-08-20T07:58:55.835Z,19.09
2022-08-20T08:01:26.660Z,19.14
2022-08-20T08:03:54.594Z,19.19
2022-08-20T08:06:28.585Z,19.22
2022-08-20T08:09:13.585Z,19.28
2022-08-20T08:11:47.800Z,19.31
2022-08-20T08:14:19.899Z,19.35
2022-08-20T08:16:47.675Z,19.39
2022-08-20T08:19:18.038Z,19.43
2022-08-20T08:21:45.806Z,19.49
2022-08-20T08:24:21.063Z,19.57
2022-08-20T08:26:50.479Z,19.66
2022-08-20T08:29:17.864Z,19.71
2022-08-20T08:31:45.717Z,19.87
2022-08-20T08:34:13.388Z,20.04
2022-08-20T08:36:41.134Z,20.06
2022-08-20T08:39:08.442Z,20.24
2022-08-20T08:41:40.952Z,20.35
2022-08-20T08:44:22.248Z,20.23
2022-08-20T08:47:01.439Z,20.49
2022-08-20T08:49:37.957Z,20.80
2022-08-20T08:52:09.126Z,20.68
2022-08-20T08:54:42.428Z,20.85
2022-08-20T08:57:10.962Z,21.19
2022-08-20T08:59:52.125Z,21.27
2022-08-20T09:02:28.585Z,21.45
2022-08-20T09:04:58.493Z,21.43
2022-08-20T09:07:31.710Z,21.60
2022-08-20T09:10:00.521Z,21.61
2022-08-20T09:12:28.203Z,21.75
2022-08-20T09:14:55.692Z,21.81
2022-08-20T09:17:24.194Z,21.98
2022-08-20T09:19:52.678Z,21.96
2022-08-20T09:22:23.557Z,22.14
2022-08-20T09:24:51.029Z,22.14
2022-08-20T09:27:19.202Z,22.08
2022-08-20T09:29:49.240Z,22.13
2022-08-20T09:32:21.003Z,22.12
2022-08-20T09:34:56.184Z,22.31
2022-08-20T09:37:26.465Z,22.46
2022-08-20T09:39:54.399Z,22.15
2022-08-20T09:42:29.258Z,22.44
2022-08-20T09:44:56.672Z,22.12
2022-08-20T09:47:25.330Z,22.08
2022-08-20T09:49:53.637Z,22.18
2022-08-20T09:52:31.241Z,22.31
2022-08-20T09:55:02.234Z,22.33
2022-08-20T09:57:31.120Z,22.28
2022-08-20T10:00:07.733Z,22.53
2022-08-20T10:02:40.207Z,22.24
2022-08-20T10:05:09.453Z,22.27
2022-08-20T10:07:40.950Z,22.22
2022-08-20T10:10:13.657Z,22.52
2022-08-20T10:12:42.226Z,22.68
2022-08-20T10:15:10.673Z,22.77
2022-08-20T10:17:43.541Z,22.87
2022-08-20T10:20:13.371Z,22.99
2022-08-20T10:22:41.109Z,22.97
2022-08-20T10:25:09.185Z,22.67
2022-08-20T10:27:36.839Z,22.86
2022-08-20T10:30:06.819Z,22.94
2022-08-20T10:32:34.758Z,22.84
2022-08-20T10:35:02.986Z,22.88
2022-08-20T10:37:31.813Z,23.02
2022-08-20T10:39:59.526Z,22.86
2022-08-20T10:42:27.088Z,23.03
2022-08-20T10:44:54.690Z,23.03
2022-08-20T10:47:33.143Z,23.14
2022-08-20T10:50:03.340Z,22.84
2022-08-20T10:52:30.923Z,23.11
2022-08-20T10:54:58.604Z,23.14
2022-08-20T10:57:29.488Z,23.41
2022-08-20T10:59:59.455Z,23.42
2022-08-20T11:02:28.669Z,23.51
2022-08-20T11:04:57.266Z,23.35
2022-08-20T11:07:54.777Z,23.48
2022-08-20T11:10:16.675Z,23.49
2022-08-20T11:12:46.413Z,23.55
2022-08-20T11:15:15.596Z,23.59
2022-08-20T11:17:44.920Z,23.61
2022-08-20T11:20:14.948Z,23.64
2022-08-20T11:22:42.552Z,23.67
2022-08-20T11:25:10.900Z,23.58
2022-08-20T11:27:42.319Z,23.74
2022-08-20T11:30:12.825Z,23.98
2022-08-20T11:32:43.522Z,24.07
2022-08-20T11:35:38.852Z,24.15
2022-08-20T11:38:03.389Z,24.30
2022-08-20T11:40:31.948Z,24.20
2022-08-20T11:43:16.734Z,24.31
2022-08-20T11:45:47.669Z,24.48
2022-08-20T11:48:15.851Z,24.31
2022-08-20T11:50:43.549Z,24.27
2022-08-20T11:53:11.364Z,24.41
2022-08-20T11:55:39.675Z,24.37
2022-08-20T11:58:11.214Z,24.37
2022-08-20T12:00:39.061Z,24.39
2022-08-20T12:03:08.987Z,24.57
2022-08-20T12:05:40.094Z,24.64
2022-08-20T12:08:08.913Z,24.60
2022-08-20T12:10:38.335Z,24.57
2022-08-20T12:13:07.545Z,24.46
2022-08-20T12:15:37.280Z,24.55
2022-08-20T12:18:09.236Z,24.74
2022-08-20T12:20:37.696Z,24.94
2022-08-20T12:23:05.697Z,24.90
2022-08-20T12:25:33.588Z,25.05
2022-08-20T12:28:01.033Z,24.99
2022-08-20T12:30:28.535Z,25.29
2022-08-20T12:32:56.390Z,25.23
2022-08-20T12:35:24.634Z,25.30
2022-08-20T12:37:52.253Z,25.33
2022-08-20T12:40:30.729Z,25.19
2022-08-20T12:43:01.813Z,25.53
2022-08-20T12:45:31.711Z,25.72
2022-08-20T12:48:10.282Z,25.70
2022-08-20T12:50:39.652Z,25.86
2022-08-20T12:53:07.279Z,25.89
2022-08-20T12:55:35.913Z,26.04
2022-08-20T12:58:04.795Z,26.19
2022-08-20T13:00:38.392Z,26.23
2022-08-20T13:03:07.482Z,26.27
2022-08-20T13:05:36.224Z,26.27
2022-08-20T13:08:08.906Z,26.35
2022-08-20T13:10:46.164Z,26.43
2022-08-20T13:13:17.600Z,26.50
2022-08-20T13:15:49.876Z,26.44
2022-08-20T13:18:19.609Z,26.51
2022-08-20T13:20:49.165Z,26.67
2022-08-20T13:23:17.714Z,26.70
2022-08-20T13:25:45.231Z,26.79
2022-08-20T13:28:12.931Z,26.85
2022-08-20T13:30:41.717Z,26.77
2022-08-20T13:33:09.588Z,26.82
2022-08-20T13:35:37.129Z,26.94
2022-08-20T13:38:04.923Z,27.11
2022-08-20T13:40:32.537Z,27.15
2022-08-20T13:43:05.920Z,27.28
2022-08-20T13:45:37.944Z,27.45
2022-08-20T13:48:09.927Z,27.40
2022-08-20T13:50:43.040Z,27.20
2022-08-20T13:53:10.682Z,27.31
2022-08-20T13:55:39.164Z,27.18
2022-08-20T13:58:08.265Z,27.09
2022-08-20T14:00:36.843Z,27.06
2022-08-20T14:03:06.532Z,27.05
2022-08-20T14:05:35.316Z,26.93
2022-08-20T14:08:10.478Z,26.87
2022-08-20T14:10:38.505Z,26.79
2022-08-20T14:13:07.216Z,26.83
2022-08-20T14:15:36.753Z,26.86
2022-08-20T14:18:05.225Z,26.95
2022-08-20T14:20:34.613Z,26.86
2022-08-20T14:23:07.056Z,26.98
2022-08-20T14:25:36.580Z,27.04
2022-08-20T14:28:18.262Z,27.07
2022-08-20T14:30:47.846Z,27.16
2022-08-20T14:33:22.761Z,27.40
2022-08-20T14:35:50.564Z,27.47
2022-08-20T14:38:18.104Z,27.61
2022-08-20T14:40:47.737Z,27.57
2022-08-20T14:43:15.306Z,27.35
2022-08-20T14:45:42.903Z,27.23
2022-08-20T14:48:10.983Z,27.22
2022-08-20T14:50:39.466Z,27.13
2022-08-20T14:53:08.311Z,26.95
2022-08-20T14:55:38.064Z,26.85
2022-08-20T14:58:10.894Z,26.80
2022-08-20T15:00:38.746Z,26.88
2022-08-20T15:03:06.426Z,26.76
2022-08-20T15:05:35.204Z,26.72
2022-08-20T15:08:08.391Z,26.64
2022-08-20T15:10:39.479Z,26.47
2022-08-20T15:13:07.761Z,26.31
2022-08-20T15:15:37.179Z,26.28
2022-08-20T15:18:05.085Z,26.20
2022-08-20T15:20:35.193Z,26.19
2022-08-20T15:23:04.488Z,26.25
2022-08-20T15:25:37.056Z,26.17
2022-08-20T15:28:06.981Z,26.09
2022-08-20T15:30:34.693Z,26.02
2022-08-20T15:33:02.716Z,26.14
2022-08-20T15:35:30.664Z,26.10
2022-08-20T15:37:59.759Z,26.03
2022-08-20T15:40:29.572Z,25.98
2022-08-20T15:42:58.623Z,25.95
2022-08-20T15:45:27.153Z,25.97
2022-08-20T15:48:32.615Z,25.95
2022-08-20T15:51:19.701Z,25.99
2022-08-20T15:53:52.960Z,25.94
2022-08-20T15:56:37.939Z,25.98
2022-08-20T15:59:14.690Z,25.93
2022-08-20T16:02:17.251Z,25.83
2022-08-20T16:04:59.452Z,25.79
2022-08-20T16:07:58.995Z,25.85
2022-08-20T16:10:55.064Z,25.82
2022-08-20T16:13:32.161Z,26.19
2022-08-20T16:16:02.641Z,26.34
2022-08-20T16:18:36.908Z,26.32
2022-08-20T16:21:10.280Z,26.31
2022-08-20T16:23:42.577Z,26.58
2022-08-20T16:26:23.850Z,26.74
2022-08-20T16:29:11.794Z,26.82
2022-08-20T16:31:51.787Z,26.35
2022-08-20T16:34:33.563Z,26.22
2022-08-20T16:37:25.639Z,26.17
2022-08-20T16:40:17.826Z,26.05
2022-08-20T16:42:48.688Z,25.97
2022-08-20T16:45:25.796Z,25.88
2022-08-20T16:47:57.675Z,25.83
2022-08-20T16:50:31.940Z,25.78
2022-08-20T16:52:59.343Z,25.76
2022-08-20T16:55:26.815Z,25.65
2022-08-20T16:57:55.326Z,25.73
2022-08-20T17:00:30.021Z,25.69
2022-08-20T17:03:00.768Z,25.93
2022-08-20T17:05:43.165Z,26.07
2022-08-20T17:08:20.621Z,26.03
2022-08-20T17:11:14.564Z,26.06
2022-08-20T17:13:47.237Z,25.92
2022-08-20T17:16:15.346Z,26.08
2022-08-20T17:18:54.004Z,26.14
2022-08-20T17:21:28.987Z,26.21
2022-08-20T17:24:03.272Z,26.05
2022-08-20T17:26:30.573Z,26.18
2022-08-20T17:29:01.432Z,26.17
2022-08-20T17:31:38.739Z,26.21
2022-08-20T17:34:21.149Z,26.02
2022-08-20T17:36:58.035Z,25.70
2022-08-20T17:39:28.906Z,25.48
2022-08-20T17:42:09.323Z,25.30
2022-08-20T17:44:49.342Z,25.19
2022-08-20T17:47:18.658Z,25.06
2022-08-20T17:49:57.292Z,24.95
2022-08-20T17:52:44.238Z,24.81
2022-08-20T17:55:13.404Z,24.67
2022-08-20T17:57:44.265Z,24.55
2022-08-20T18:00:16.610Z,24.43
2022-08-20T18:02:45.332Z,24.30
2022-08-20T18:05:18.728Z,24.19
2022-08-20T18:08:19.582Z,24.21
2022-08-20T18:11:14.471Z,24.19
2022-08-20T18:13:55.922Z,23.96
2022-08-20T18:16:30.511Z,23.96
2022-08-20T18:19:11.396Z,23.78
2022-08-20T18:22:00.465Z,23.69
2022-08-20T18:24:39.015Z,23.55
2022-08-20T18:27:21.070Z,23.42
2022-08-20T18:29:57.641Z,23.34
2022-08-20T18:32:31.345Z,23.21
2022-08-20T18:35:25.213Z,23.06
2022-08-20T18:37:53.039Z,22.95
2022-08-20T18:40:33.290Z,22.79
2022-08-20T18:43:13.073Z,22.64
2022-08-20T18:45:42.524Z,22.46
2022-08-20T18:48:22.751Z,22.29
2022-08-20T18:50:55.376Z,22.14
2022-08-20T18:53:35.478Z,22.00
2022-08-20T18:56:05.686Z,21.85
2022-08-20T18:58:49.019Z,21.72
2022-08-20T19:01:16.598Z,21.57
2022-08-20T19:03:51.434Z,21.44
2022-08-20T19:06:21.662Z,21.32
2022-08-20T19:09:15.077Z,21.20
2022-08-20T19:12:00.954Z,21.06
2022-08-20T19:14:46.510Z,20.93
2022-08-20T19:17:32.447Z,20.77
2022-08-20T19:20:30.013Z,20.67
2022-08-20T19:23:05.131Z,20.54
2022-08-20T19:25:36.511Z,20.44
2022-08-20T19:28:23.884Z,20.34
2022-08-20T19:30:52.624Z,20.23
2022-08-20T19:33:31.795Z,20.13
2022-08-20T19:36:28.404Z,20.03
2022-08-20T19:38:59.743Z,19.93
2022-08-20T19:41:31.689Z,19.86
2022-08-20T19:44:01.131Z,19.78
2022-08-20T19:46:47.724Z,19.67
2022-08-20T19:49:29.337Z,19.60
2022-08-20T19:52:13.624Z,19.52
2022-08-20T19:55:00.011Z,19.41
2022-08-20T19:57:30.379Z,19.33
2022-08-20T20:00:02.036Z,19.29
2022-08-20T20:02:34.000Z,19.23
2022-08-20T20:05:07.112Z,19.16
2022-08-20T20:07:42.258Z,19.12
2022-08-20T20:10:20.106Z,19.08
2022-08-20T20:12:48.211Z,19.01
2022-08-20T20:15:16.551Z,18.99
2022-08-20T20:17:46.919Z,18.95
2022-08-20T20:20:29.433Z,18.88
2022-08-20T20:23:06.812Z,18.82
2022-08-20T20:25:35.499Z,18.77
2022-08-20T20:28:08.798Z,18.70
2022-08-20T20:30:38.984Z,18.65
2022-08-20T20:33:22.580Z,18.60
2022-08-20T20:36:04.283Z,18.54
2022-08-20T20:38:33.929Z,18.48
2022-08-20T20:41:05.144Z,18.43
2022-08-20T20:43:35.428Z,18.39
2022-08-20T20:46:20.759Z,18.34
2022-08-20T20:48:51.748Z,18.27
2022-08-20T20:51:31.482Z,18.22
2022-08-20T20:54:07.362Z,18.16
2022-08-20T20:56:41.423Z,18.13
2022-08-20T20:59:11.152Z,18.07
2022-08-20T21:01:48.451Z,18.02
2022-08-20T21:04:30.301Z,17.96
2022-08-20T21:07:08.070Z,17.92
2022-08-20T21:09:40.727Z,17.88
2022-08-20T21:12:10.246Z,17.85
2022-08-20T21:14:37.748Z,17.81
2022-08-20T21:17:08.775Z,17.77
2022-08-20T21:19:44.970Z,17.72
2022-08-20T21:22:12.989Z,17.69
2022-08-20T21:24:40.571Z,17.65
2022-08-20T21:27:08.937Z,17.60
2022-08-20T21:29:40.016Z,17.56
2022-08-20T21:32:08.213Z,17.52
2022-08-20T21:34:41.354Z,17.48
2022-08-20T21:37:08.904Z,17.45
2022-08-20T21:39:38.655Z,17.42
2022-08-20T21:42:28.084Z,17.37
2022-08-20T21:44:56.661Z,17.31
2022-08-20T21:47:25.066Z,17.29
2022-08-20T21:49:55.718Z,17.22
2022-08-20T21:52:23.478Z,17.18
2022-08-20T21:54:51.195Z,17.15
2022-08-20T21:57:21.739Z,17.13
2022-08-20T21:59:50.188Z,17.08
2022-08-20T22:02:19.289Z,17.04
2022-08-20T22:04:46.799Z,16.99
2022-08-20T22:07:15.601Z,16.93
2022-08-20T22:09:43.286Z,16.89
2022-08-20T22:12:19.339Z,16.84
2022-08-20T22:14:47.329Z,16.80
2022-08-20T22:17:15.978Z,16.77
2022-08-20T22:19:43.583Z,16.73
2022-08-20T22:22:13.353Z,16.71
2022-08-20T22:24:40.812Z,16.67
2022-08-20T22:27:08.453Z,16.64
2022-08-20T22:29:36.372Z,16.62
2022-08-20T22:32:05.021Z,16.60
2022-08-20T22:34:35.992Z,16.57
2022-08-20T22:37:04.651Z,16.54
2022-08-20T22:39:32.264Z,16.50
2022-08-20T22:42:00.062Z,16.56
2022-08-20T22:44:27.812Z,16.51
2022-08-20T22:46:59.893Z,16.42
2022-08-20T22:49:31.267Z,16.40
2022-08-20T22:51:59.387Z,16.35
2022-08-20T22:54:27.321Z,16.32
2022-08-20T22:56:55.368Z,16.33
2022-08-20T22:59:24.163Z,16.30
2022-08-20T23:01:53.245Z,16.23
2022-08-20T23:04:33.195Z,16.15
2022-08-20T23:07:02.818Z,16.11
2022-08-20T23:09:30.930Z,16.09
2022-08-20T23:11:58.955Z,16.05
2022-08-20T23:14:26.945Z,16.03
2022-08-20T23:17:13.436Z,15.99
2022-08-20T23:19:42.914Z,15.96
2022-08-20T23:22:12.563Z,15.96
2022-08-20T23:24:40.771Z,15.98
2022-08-20T23:27:10.548Z,15.98
2022-08-20T23:29:38.262Z,15.96
2022-08-20T23:32:48.935Z,15.92
2022-08-20T23:35:17.249Z,15.91
2022-08-20T23:37:51.696Z,15.89
2022-08-20T23:40:28.293Z,15.87
2022-08-20T23:42:57.564Z,15.86
2022-08-20T23:45:25.581Z,15.85
2022-08-20T23:47:53.331Z,15.82
2022-08-20T23:50:24.360Z,15.80
2022-08-20T23:52:52.723Z,15.78
2022-08-20T23:55:22.914Z,15.78
2022-08-20T23:57:51.044Z,15.75
